Time;durP1;ratioP1;P1;durP2;ratioP2;P2;SDS_P1;SDS_P2;PMS_P1;PMS_P2;Temp;Humidity;BMP_temperature;BMP_pressure;BME280_temperature;BME280_humidity;BME280_pressure;Samples;Min_cycle;Max_cycle;Signal;HPM_P1;HPM_P2
2023/07/29 00:01:49;;;;;;;;;5.75;4.75;;;;;22.31;75.41;100487.84;5039521;28;45380;-71
2023/07/29 00:04:15;;;;;;;;;7.00;6.00;;;;;22.30;75.71;100475.38;5039421;28;45962;-71
2023/07/29 00:06:40;;;;;;;;;7.00;7.00;;;;;22.29;75.34;100468.31;5039294;28;45323;-71
2023/07/29 00:09:05;;;;;;;;;9.25;8.00;;;;;22.07;74.99;100433.56;5037860;28;45266;-72
2023/07/29 00:11:33;;;;;;;;;6.00;6.00;;;;;22.33;74.85;100472.19;5021439;28;45607;-71
2023/07/29 00:13:59;;;;;;;;;5.25;5.25;;;;;22.33;74.66;100472.19;5038569;28;45779;-71
2023/07/29 00:16:24;;;;;;;;;6.25;5.00;;;;;22.32;74.03;100462.44;5038798;28;45326;-71
2023/07/29 00:18:50;;;;;;;;;12.00;9.00;;;;;22.28;73.55;100451.22;5039251;28;45307;-71
2023/07/29 00:21:15;;;;;;;;;8.00;8.00;;;;;22.34;72.93;100460.31;5039356;28;45351;-71
2023/07/29 00:23:40;;;;;;;;;4.25;4.00;;;;;21.96;73.00;100393.69;5020909;28;47753;-71
2023/07/29 00:26:05;;;;;;;;;4.50;3.50;;;;;22.34;72.07;100460.31;5038718;28;45330;-71
2023/07/29 00:28:31;;;;;;;;;4.25;4.25;;;;;22.29;71.55;100447.47;5038973;28;45461;-72
2023/07/29 00:30:56;;;;;;;;;3.25;3.25;;;;;22.28;71.78;100453.09;5021210;28;45345;-72
2023/07/29 00:33:22;;;;;;;;;2.75;2.00;;;;;22.31;71.38;100453.47;5038510;28;45616;-72
2023/07/29 00:35:47;;;;;;;;;2.50;2.50;;;;;22.30;71.22;100453.69;5038855;28;45411;-71
2023/07/29 00:38:12;;;;;;;;;2.00;2.00;;;;;22.17;70.94;100444.69;5038931;28;45450;-72
2023/07/29 00:40:38;;;;;;;;;4.00;2.25;;;;;22.27;70.54;100454.16;5039290;28;45405;-72
2023/07/29 00:43:03;;;;;;;;;1.50;1.50;;;;;22.10;70.08;100426.88;5038256;28;48316;-72
2023/07/29 00:45:30;;;;;;;;;1.25;1.25;;;;;22.21;70.02;100465.88;5038525;28;45435;-71
2023/07/29 00:47:55;;;;;;;;;2.50;2.50;;;;;22.19;69.94;100471.53;5037913;28;45364;-71
2023/07/29 00:50:21;;;;;;;;;3.00;3.00;;;;;22.05;70.02;100451.94;5038926;28;45530;-72
2023/07/29 00:52:50;;;;;;;;;1.00;1.00;;;;;22.08;69.94;100458.75;5038322;28;46926;-71
2023/07/29 00:55:15;;;;;;;;;2.00;2.00;;;;;22.13;70.17;100469.72;5038544;28;45482;-70
2023/07/29 00:57:42;;;;;;;;;1.00;1.00;;;;;22.06;70.22;100452.75;5038221;28;45309;-71
2023/07/29 01:00:08;;;;;;;;;2.00;2.00;;;;;22.01;70.06;100449.84;5038635;28;45273;-70
2023/07/29 01:02:35;;;;;;;;;3.00;3.00;;;;;22.11;69.67;100474.56;5038270;28;46567;-71
2023/07/29 01:05:01;;;;;;;;;1.00;0.00;;;;;22.10;69.52;100473.72;5038271;28;45315;-71
2023/07/29 01:07:45;;;;;;;;;2.00;2.00;;;;;22.10;69.27;100470.19;5038356;28;45393;-71
2023/07/29 01:10:30;;;;;;;;;2.25;2.25;;;;;21.94;69.05;100454.50;5038493;28;45237;-73
2023/07/29 01:13:19;;;;;;;;;1.00;1.00;;;;;22.02;68.94;100471.28;5037807;28;45848;-71
2023/07/29 01:15:54;;;;;;;;;1.00;1.00;;;;;21.99;68.86;100473.59;5038096;28;45436;-71
2023/07/29 01:18:28;;;;;;;;;1.50;1.50;;;;;21.94;68.29;100451.81;5038455;28;45324;-71
2023/07/29 01:20:57;;;;;;;;;2.00;1.00;;;;;21.97;68.22;100454.06;5038164;28;45286;-71
2023/07/29 01:23:26;;;;;;;;;1.00;1.00;;;;;21.89;67.93;100452.50;5037890;28;45723;-71
2023/07/29 01:25:51;;;;;;;;;1.00;1.00;;;;;21.92;67.86;100452.03;5037908;28;45274;-71
2023/07/29 01:28:17;;;;;;;;;1.00;1.00;;;;;21.59;67.44;100400.16;5037664;28;49392;-71
2023/07/29 01:30:44;;;;;;;;;0.00;0.00;;;;;21.60;67.53;100396.38;5038255;28;45551;-69
2023/07/29 01:33:16;;;;;;;;;1.00;1.00;;;;;21.85;67.34;100460.25;5037751;28;45679;-71
2023/07/29 01:35:41;;;;;;;;;1.75;1.75;;;;;21.84;67.37;100455.06;5037778;28;45443;-71
2023/07/29 01:38:33;;;;;;;;;0.00;0.00;;;;;21.82;67.14;100455.28;5038306;28;45256;-71
2023/07/29 01:41:01;;;;;;;;;1.00;1.00;;;;;21.76;67.39;100433.69;5038272;28;45513;-71
2023/07/29 01:43:28;;;;;;;;;1.00;1.00;;;;;21.73;67.04;100432.25;5037209;28;45714;-71
2023/07/29 01:45:54;;;;;;;;;1.00;1.00;;;;;21.82;67.38;100462.53;5037567;28;45265;-72
2023/07/29 01:48:19;;;;;;;;;0.25;0.25;;;;;21.79;66.89;100435.94;5037698;28;45470;-71
2023/07/29 01:50:45;;;;;;;;;1.00;1.00;;;;;21.70;66.62;100429.19;5036369;28;45403;-71
2023/07/29 01:53:10;;;;;;;;;0.50;0.50;;;;;21.67;67.10;100437.75;5037423;28;46707;-71
2023/07/29 01:55:35;;;;;;;;;1.25;1.25;;;;;21.80;67.43;100459.22;5037271;28;45408;-72
2023/07/29 01:58:00;;;;;;;;;2.00;1.00;;;;;21.74;67.12;100452.03;5036571;28;60903;-71
2023/07/29 02:00:26;;;;;;;;;0.75;0.75;;;;;21.76;67.10;100474.28;5037192;28;50906;-71
2023/07/29 02:02:51;;;;;;;;;1.00;1.00;;;;;21.66;67.54;100468.56;5037261;28;45750;-71
2023/07/29 02:05:16;;;;;;;;;2.00;1.00;;;;;21.45;67.47;100437.34;5037041;28;50690;-71
2023/07/29 02:07:42;;;;;;;;;1.00;1.00;;;;;21.50;67.37;100451.84;5037454;28;45334;-72
2023/07/29 02:10:08;;;;;;;;;1.75;1.25;;;;;21.69;67.01;100478.94;5037453;28;45286;-72
2023/07/29 02:12:34;;;;;;;;;2.50;1.75;;;;;21.64;67.22;100489.59;5036787;28;45556;-72
2023/07/29 02:14:59;;;;;;;;;1.00;1.00;;;;;21.67;67.37;100470.22;5037396;28;45395;-72
2023/07/29 02:17:26;;;;;;;;;1.00;1.00;;;;;21.54;67.15;100407.06;5037152;28;45300;-71
2023/07/29 02:19:51;;;;;;;;;5.25;5.25;;;;;21.66;67.34;100452.31;5037647;28;45309;-72
2023/07/29 02:22:17;;;;;;;;;1.25;1.25;;;;;21.33;67.13;100401.25;5037012;28;46731;-71
2023/07/29 02:24:43;;;;;;;;;0.75;0.75;;;;;21.38;67.12;100410.34;5037094;28;45361;-71
2023/07/29 02:27:09;;;;;;;;;0.50;0.50;;;;;21.51;67.01;100445.38;5036822;28;45297;-71
2023/07/29 02:29:34;;;;;;;;;1.00;1.00;;;;;21.50;67.19;100453.72;5037204;28;45366;-71
2023/07/29 02:32:00;;;;;;;;;1.00;1.00;;;;;21.49;67.20;100452.91;5036429;28;63877;-72
2023/07/29 02:34:25;;;;;;;;;0.25;0.25;;;;;21.48;67.34;100466.66;5036845;28;45662;-71
2023/07/29 02:36:50;;;;;;;;;1.00;1.00;;;;;21.25;67.17;100432.13;5036559;28;53555;-70
2023/07/29 02:39:16;;;;;;;;;1.25;0.25;;;;;21.44;67.21;100477.09;5037235;28;45516;-70
2023/07/29 02:41:41;;;;;;;;;1.00;1.00;;;;;21.27;67.50;100458.94;5036422;28;46610;-71
2023/07/29 02:44:06;;;;;;;;;2.00;0.50;;;;;21.39;67.42;100471.50;5036670;28;45377;-71
2023/07/29 02:46:32;;;;;;;;;2.00;2.00;;;;;21.25;67.38;100451.88;5037061;28;45478;-71
2023/07/29 02:48:57;;;;;;;;;1.75;1.75;;;;;21.31;67.64;100455.56;5036990;28;45255;-71
2023/07/29 02:51:22;;;;;;;;;1.00;1.00;;;;;21.39;67.56;100457.97;5036756;28;46604;-71
2023/07/29 02:53:48;;;;;;;;;1.00;1.00;;;;;21.37;67.57;100470.88;5036669;28;45356;-72
2023/07/29 02:56:13;;;;;;;;;0.00;0.00;;;;;21.29;67.53;100451.41;5018746;28;45572;-72
2023/07/29 02:58:39;;;;;;;;;1.00;1.00;;;;;21.30;67.73;100453.06;5036716;28;45439;-73
2023/07/29 03:01:05;;;;;;;;;0.50;0.50;;;;;21.24;67.87;100450.22;5036547;28;46063;-72
2023/07/29 03:03:31;;;;;;;;;1.00;1.00;;;;;20.95;67.61;100421.91;5018583;28;45526;-72
2023/07/29 03:06:03;;;;;;;;;1.00;1.00;;;;;21.22;67.62;100471.22;5036839;28;45530;-72
2023/07/29 03:08:28;;;;;;;;;1.25;1.00;;;;;21.16;67.90;100479.34;5036749;28;45613;-72
2023/07/29 03:10:54;;;;;;;;;1.00;1.00;;;;;21.15;67.80;100478.53;5036112;28;45737;-72
2023/07/29 03:13:20;;;;;;;;;1.00;1.00;;;;;21.17;68.06;100481.00;5035891;28;45379;-72
2023/07/29 03:15:45;;;;;;;;;2.00;2.00;;;;;21.10;67.62;100474.84;5036172;28;45206;-73
2023/07/29 03:18:10;;;;;;;;;0.50;0.50;;;;;21.18;67.82;100483.50;5036655;28;45427;-73
2023/07/29 03:20:36;;;;;;;;;2.00;2.00;;;;;21.08;68.11;100475.06;5035471;28;66252;-71
2023/07/29 03:23:01;;;;;;;;;1.75;1.00;;;;;21.04;67.84;100475.72;5036155;28;45388;-72
2023/07/29 03:25:26;;;;;;;;;1.00;1.00;;;;;21.04;68.08;100494.63;5035572;28;61789;-72
2023/07/29 03:27:52;;;;;;;;;4.00;3.00;;;;;20.95;68.31;100478.66;5036169;28;45171;-73
2023/07/29 03:30:21;;;;;;;;;1.00;1.00;;;;;21.08;68.09;100499.38;5036139;28;52931;-72
2023/07/29 03:32:48;;;;;;;;;1.50;1.50;;;;;20.99;68.06;100492.56;5034683;28;45342;-73
2023/07/29 03:35:13;;;;;;;;;1.00;1.00;;;;;20.97;68.12;100491.97;5034605;28;45261;-72
2023/07/29 03:37:39;;;;;;;;;1.50;1.50;;;;;21.08;68.23;100515.59;5036396;28;45443;-72
2023/07/29 03:40:05;;;;;;;;;2.00;2.00;;;;;20.74;68.10;100454.69;5035902;28;46355;-72
2023/07/29 03:42:31;;;;;;;;;1.00;1.00;;;;;21.07;68.23;100507.72;5035772;28;45240;-72
2023/07/29 03:44:56;;;;;;;;;1.00;1.00;;;;;20.99;68.40;100499.84;5036032;28;45585;-70
2023/07/29 03:47:21;;;;;;;;;1.50;1.50;;;;;21.06;68.07;100506.88;5036096;28;45377;-71
2023/07/29 03:49:47;;;;;;;;;6.00;6.00;;;;;21.07;68.21;100510.41;5035917;28;47590;-71
2023/07/29 03:52:12;;;;;;;;;2.00;2.00;;;;;21.02;68.20;100511.03;5035727;28;45364;-71
2023/07/29 03:54:37;;;;;;;;;1.00;1.00;;;;;20.87;68.34;100494.31;5017879;28;45336;-71
2023/07/29 03:57:03;;;;;;;;;2.50;2.50;;;;;21.00;68.51;100506.91;5035448;28;45507;-71
2023/07/29 03:59:29;;;;;;;;;2.75;1.25;;;;;20.92;68.32;100500.72;5035487;28;45602;-70
2023/07/29 04:01:54;;;;;;;;;2.50;2.00;;;;;20.88;68.47;100498.69;5035670;28;45496;-72
2023/07/29 04:04:19;;;;;;;;;1.75;1.75;;;;;20.92;68.53;100494.50;5035665;28;45496;-73
2023/07/29 04:06:45;;;;;;;;;1.75;1.75;;;;;20.89;68.32;100497.63;5035395;28;46616;-72
2023/07/29 04:09:10;;;;;;;;;1.00;1.00;;;;;20.82;68.55;100494.97;5035623;28;45658;-71
2023/07/29 04:11:35;;;;;;;;;3.00;3.00;;;;;20.91;68.42;100514.47;5035489;28;45371;-72
2023/07/29 04:14:01;;;;;;;;;2.50;2.50;;;;;20.86;68.35;100506.19;5035391;28;45459;-72
2023/07/29 04:16:26;;;;;;;;;3.00;2.00;;;;;20.14;68.24;100394.75;5035667;28;45500;-72
2023/07/29 04:18:52;;;;;;;;;2.00;2.00;;;;;20.87;68.24;100513.25;5033908;28;47361;-71
2023/07/29 04:21:17;;;;;;;;;1.00;1.00;;;;;20.58;68.50;100466.84;5035267;28;50625;-71
2023/07/29 04:23:42;;;;;;;;;2.75;2.00;;;;;20.75;68.32;100504.97;5038460;28;45417;-72
2023/07/29 04:26:07;;;;;;;;;1.00;1.00;;;;;20.80;68.63;100515.97;5020783;28;45602;-73
2023/07/29 04:28:33;;;;;;;;;2.00;2.00;;;;;20.72;68.72;100505.41;5038577;28;45552;-71
2023/07/29 04:30:59;;;;;;;;;2.00;2.00;;;;;20.79;68.33;100527.81;5038839;28;45262;-72
2023/07/29 04:33:24;;;;;;;;;1.50;1.50;;;;;20.64;68.43;100530.00;5038836;28;45522;-72
2023/07/29 04:35:50;;;;;;;;;2.00;2.00;;;;;20.39;68.63;100473.13;5039442;28;45258;-72
2023/07/29 04:38:15;;;;;;;;;1.75;1.75;;;;;20.69;68.61;100519.38;5038771;28;45635;-72
2023/07/29 04:40:40;;;;;;;;;1.00;1.00;;;;;20.76;68.51;100530.94;5038266;28;58461;-71
2023/07/29 04:43:06;;;;;;;;;2.00;1.00;;;;;20.55;68.30;100493.44;5038625;28;45199;-71
2023/07/29 04:45:31;;;;;;;;;3.00;0.75;;;;;20.76;68.54;100524.72;5037243;28;45487;-72
2023/07/29 04:47:58;;;;;;;;;2.50;1.25;;;;;20.59;68.23;100498.19;5038083;28;52428;-72
2023/07/29 04:50:23;;;;;;;;;2.00;1.00;;;;;20.70;68.55;100518.31;5038405;28;45357;-72
2023/07/29 04:52:49;;;;;;;;;0.25;0.25;;;;;20.75;68.59;100514.97;5038518;28;45336;-71
2023/07/29 04:55:14;;;;;;;;;1.50;1.50;;;;;20.67;68.39;100517.94;5038528;28;45296;-71
2023/07/29 04:57:39;;;;;;;;;0.00;0.00;;;;;20.73;68.30;100526.00;5037866;28;45621;-72
2023/07/29 05:00:05;;;;;;;;;0.50;0.50;;;;;20.43;68.40;100476.28;5038123;28;54843;-71
2023/07/29 05:02:31;;;;;;;;;1.00;1.00;;;;;20.64;68.68;100508.38;5038272;28;45450;-72
2023/07/29 05:04:56;;;;;;;;;1.00;1.00;;;;;20.69;68.17;100519.38;5038181;28;45313;-72
2023/07/29 05:07:21;;;;;;;;;1.00;1.00;;;;;20.79;68.11;100527.00;5037478;28;58719;-72
2023/07/29 05:09:48;;;;;;;;;1.00;1.00;;;;;20.67;68.22;100516.06;5038060;28;45566;-74
2023/07/29 05:12:13;;;;;;;;;1.25;0.50;;;;;20.75;68.53;100537.41;5038159;28;45277;-72
2023/07/29 05:14:38;;;;;;;;;1.00;1.00;;;;;20.56;68.21;100506.75;5038225;28;45428;-71
2023/07/29 05:17:04;;;;;;;;;1.00;1.00;;;;;20.62;68.32;100526.66;5037862;28;56179;-72
2023/07/29 05:19:29;;;;;;;;;2.00;2.00;;;;;19.57;68.07;100344.34;5038119;28;45281;-72
2023/07/29 05:21:56;;;;;;;;;2.50;2.50;;;;;20.78;68.21;100536.13;5037993;28;45604;-72
2023/07/29 05:24:21;;;;;;;;;2.00;1.00;;;;;20.66;68.27;100517.09;5038019;28;45515;-73
2023/07/29 05:26:46;;;;;;;;;2.50;1.00;;;;;20.79;68.27;100537.78;5037302;28;50507;-73
2023/07/29 05:29:12;;;;;;;;;3.00;2.00;;;;;20.65;68.10;100508.16;5037794;28;45494;-71
2023/07/29 05:31:37;;;;;;;;;2.25;1.00;;;;;20.54;68.09;100487.22;5038074;28;45222;-71
2023/07/29 05:34:02;;;;;;;;;1.00;1.00;;;;;20.69;67.79;100511.25;5038228;28;45279;-71
2023/07/29 05:36:28;;;;;;;;;1.25;1.25;;;;;20.61;67.95;100506.09;5037746;28;46374;-72
2023/07/29 05:38:53;;;;;;;;;0.75;0.75;;;;;20.79;67.75;100538.63;5037852;28;45361;-72
2023/07/29 05:41:18;;;;;;;;;1.00;1.00;;;;;20.79;67.80;100541.31;5019490;28;45364;-73
2023/07/29 05:43:45;;;;;;;;;1.00;1.00;;;;;20.53;67.70;100485.56;5037644;28;45511;-72
2023/07/29 05:46:10;;;;;;;;;1.00;1.00;;;;;20.47;67.96;100470.22;5036012;28;47986;-72
2023/07/29 05:48:35;;;;;;;;;4.00;1.75;;;;;20.84;67.96;100532.59;5036881;28;45296;-72
2023/07/29 05:51:01;;;;;;;;;1.50;1.00;;;;;20.74;67.72;100519.53;5037549;28;45394;-72
2023/07/29 05:53:26;;;;;;;;;1.00;1.00;;;;;20.44;67.43;100465.28;5037821;28;45396;-74
2023/07/29 05:55:51;;;;;;;;;1.25;0.50;;;;;20.94;67.53;100541.03;5037138;28;52245;-71
2023/07/29 05:58:17;;;;;;;;;1.00;0.00;;;;;20.96;67.65;100545.19;5037105;28;45514;-71
2023/07/29 06:00:42;;;;;;;;;2.00;1.00;;;;;20.93;67.29;100545.63;5037735;28;45410;-71
2023/07/29 06:03:07;;;;;;;;;1.00;1.00;;;;;20.99;67.39;100543.09;5037713;28;45464;-72
2023/07/29 06:05:33;;;;;;;;;0.50;0.50;;;;;20.92;66.99;100516.94;5019218;28;48814;-72
2023/07/29 06:07:58;;;;;;;;;1.00;1.00;;;;;20.99;66.97;100526.88;5019469;28;45270;-71
2023/07/29 06:10:24;;;;;;;;;2.75;2.75;;;;;20.98;66.95;100519.81;5037220;28;45350;-70
2023/07/29 06:12:49;;;;;;;;;0.75;0.75;;;;;21.10;67.40;100535.13;5037369;28;45390;-72
2023/07/29 06:15:14;;;;;;;;;0.00;0.00;;;;;21.07;66.51;100522.06;5036835;28;52047;-71
2023/07/29 06:17:40;;;;;;;;;1.25;1.25;;;;;21.28;66.94;100526.31;5036917;28;45502;-72
2023/07/29 06:20:06;;;;;;;;;0.00;0.00;;;;;21.77;66.28;100552.53;5037062;28;45219;-71
2023/07/29 06:22:31;;;;;;;;;1.00;1.00;;;;;22.01;64.50;100537.28;5037294;28;45338;-73
2023/07/29 06:24:57;;;;;;;;;0.25;0.25;;;;;22.39;62.30;100568.78;5036877;28;45619;-73
2023/07/29 06:27:22;;;;;;;;;1.75;1.00;;;;;22.42;63.33;100561.03;5035489;28;45339;-73
2023/07/29 06:29:47;;;;;;;;;0.00;0.00;;;;;22.56;61.45;100575.28;5035923;28;45481;-72
2023/07/29 06:32:13;;;;;;;;;0.75;0.75;;;;;22.55;61.54;100564.66;5037083;28;45202;-72
2023/07/29 06:34:38;;;;;;;;;0.00;0.00;;;;;22.54;61.47;100573.84;5034684;28;63888;-73
2023/07/29 06:37:03;;;;;;;;;0.00;0.00;;;;;22.44;61.25;100568.97;5036092;28;65191;-72
2023/07/29 06:39:29;;;;;;;;;0.00;0.00;;;;;22.27;60.87;100549.78;5036907;28;45239;-72
2023/07/29 06:41:54;;;;;;;;;1.00;1.00;;;;;22.37;60.75;100577.16;5035354;28;45598;-70
2023/07/29 06:44:19;;;;;;;;;1.50;0.00;;;;;22.38;61.65;100577.97;5035961;28;46400;-72
2023/07/29 06:46:45;;;;;;;;;0.00;0.00;;;;;22.30;61.63;100557.44;5036146;28;45360;-72
2023/07/29 06:49:10;;;;;;;;;0.00;0.00;;;;;22.50;61.81;100568.06;5036618;28;45283;-72
2023/07/29 06:51:35;;;;;;;;;0.75;0.75;;;;;22.65;60.99;100560.38;5036841;28;45257;-73
2023/07/29 06:54:02;;;;;;;;;1.25;1.25;;;;;22.82;61.38;100568.72;5036169;28;46217;-72
2023/07/29 06:56:27;;;;;;;;;1.25;1.25;;;;;22.98;60.47;100561.84;5036448;28;45409;-72
2023/07/29 06:58:52;;;;;;;;;0.00;0.00;;;;;23.03;60.24;100545.72;5036405;28;45301;-71
2023/07/29 07:01:18;;;;;;;;;0.00;0.00;;;;;23.49;59.16;100574.03;5037111;28;45405;-72
2023/07/29 07:03:43;;;;;;;;;0.00;0.00;;;;;23.72;58.63;100576.81;5036584;28;46485;-72
2023/07/29 07:06:10;;;;;;;;;0.00;0.00;;;;;23.87;57.83;100574.47;5036578;28;45467;-72
2023/07/29 07:08:35;;;;;;;;;0.00;0.00;;;;;23.81;56.14;100564.53;5036802;28;45488;-71
2023/07/29 07:11:00;;;;;;;;;0.00;0.00;;;;;23.88;56.67;100589.69;5036779;28;45572;-72
2023/07/29 07:13:26;;;;;;;;;0.00;0.00;;;;;23.88;56.53;100575.28;5036020;28;46618;-72
2023/07/29 07:15:54;;;;;;;;;0.00;0.00;;;;;23.92;56.53;100590.88;5036042;28;45245;-72
2023/07/29 07:18:22;;;;;;;;;1.00;0.40;;;;;23.98;56.87;100599.94;5036540;28;45487;-73
2023/07/29 07:20:51;;;;;;;;;0.00;0.00;;;;;23.88;55.59;100595.13;5036636;28;45542;-73
2023/07/29 07:23:18;;;;;;;;;1.00;1.00;;;;;23.78;56.02;100597.56;5035730;28;46393;-72
2023/07/29 07:25:43;;;;;;;;;0.00;0.00;;;;;23.80;57.12;100606.31;5035894;28;45337;-73
2023/07/29 07:28:09;;;;;;;;;0.00;0.00;;;;;23.67;56.41;100591.09;5035934;28;45427;-72
2023/07/29 07:30:35;;;;;;;;;1.00;0.00;;;;;23.69;57.14;100609.84;5018149;28;45512;-73
2023/07/29 07:33:01;;;;;;;;;0.00;0.00;;;;;23.70;56.99;100600.66;5035757;28;45594;-72
2023/07/29 07:35:26;;;;;;;;;0.00;0.00;;;;;23.85;57.17;100609.16;5035743;28;45406;-73
2023/07/29 07:37:51;;;;;;;;;0.00;0.00;;;;;24.01;56.37;100612.22;5034271;28;45320;-72
2023/07/29 07:40:17;;;;;;;;;0.00;0.00;;;;;23.96;56.24;100597.47;5036141;28;45350;-72
2023/07/29 07:42:42;;;;;;;;;1.00;1.00;;;;;23.95;55.97;100603.97;5035250;28;56404;-73
2023/07/29 07:45:07;;;;;;;;;0.00;0.00;;;;;22.97;55.85;100459.88;5017590;28;45351;-72
2023/07/29 07:47:33;;;;;;;;;1.50;0.50;;;;;23.90;56.35;100622.03;5034249;28;45293;-71
2023/07/29 07:49:58;;;;;;;;;0.75;0.75;;;;;23.81;55.96;100613.38;5017860;28;45575;-73
2023/07/29 07:52:23;;;;;;;;;0.00;0.00;;;;;23.60;56.26;100581.38;5017561;28;47376;-73
2023/07/29 07:54:53;;;;;;;;;0.00;0.00;;;;;23.75;56.03;100603.47;5035521;28;52106;-74
2023/07/29 07:57:19;;;;;;;;;0.00;0.00;;;;;23.64;55.77;100607.84;5037913;28;45435;-73
2023/07/29 07:59:45;;;;;;;;;1.00;0.00;;;;;23.45;56.68;100591.84;5021306;28;45655;-73
2023/07/29 08:02:10;;;;;;;;;0.75;0.75;;;;;23.47;57.19;100590.53;5038974;28;46676;-72
2023/07/29 08:04:36;;;;;;;;;0.00;0.00;;;;;23.62;56.85;100609.09;5020791;28;45501;-73
2023/07/29 08:07:01;;;;;;;;;0.00;0.00;;;;;23.59;56.91;100604.16;5038989;28;45573;-72
2023/07/29 08:09:26;;;;;;;;;0.00;0.00;;;;;23.57;56.50;100596.25;5038740;28;45286;-72
2023/07/29 08:11:52;;;;;;;;;0.00;0.00;;;;;23.75;56.98;100613.50;5038345;28;46116;-72
2023/07/29 08:14:17;;;;;;;;;1.25;1.00;;;;;23.77;56.87;100606.78;5038115;28;60762;-72
2023/07/29 08:16:42;;;;;;;;;1.00;0.00;;;;;23.93;56.69;100610.69;5039157;28;45351;-72
2023/07/29 08:19:09;;;;;;;;;0.50;0.50;;;;;23.90;56.89;100601.13;5039282;28;45324;-71
2023/07/29 08:21:35;;;;;;;;;3.00;1.00;;;;;23.89;56.72;100568.78;5038612;28;46523;-72
2023/07/29 08:24:00;;;;;;;;;0.00;0.00;;;;;24.09;55.60;100577.41;5038692;28;45456;-73
2023/07/29 08:26:25;;;;;;;;;0.75;0.75;;;;;24.18;55.40;100584.13;5038899;28;45252;-73
2023/07/29 08:28:51;;;;;;;;;0.00;0.00;;;;;24.38;55.19;100597.38;5038851;28;45475;-72
2023/07/29 08:31:16;;;;;;;;;0.00;0.00;;;;;24.48;54.85;100604.94;5037164;28;46982;-73
2023/07/29 08:33:42;;;;;;;;;0.00;0.00;;;;;24.52;54.83;100616.97;5038683;28;45242;-73
2023/07/29 08:36:07;;;;;;;;;1.00;1.00;;;;;24.44;54.66;100596.44;5037279;28;45542;-73
2023/07/29 08:38:32;;;;;;;;;3.00;2.00;;;;;24.42;54.92;100601.25;5038726;28;45409;-73
2023/07/29 08:41:11;;;;;;;;;1.50;0.50;;;;;24.55;54.25;100608.34;5038521;28;47667;-71
2023/07/29 08:43:38;;;;;;;;;1.00;1.00;;;;;24.52;54.45;100597.94;5038396;28;45515;-71
2023/07/29 08:46:06;;;;;;;;;0.75;0.75;;;;;24.53;54.24;100608.56;5038297;28;45253;-72
2023/07/29 08:48:39;;;;;;;;;0.00;0.00;;;;;24.57;54.75;100590.72;5038630;28;45353;-72
2023/07/29 08:51:05;;;;;;;;;0.00;0.00;;;;;24.59;53.71;100568.72;5038190;28;45516;-73
2023/07/29 08:53:31;;;;;;;;;1.00;1.00;;;;;24.72;54.19;100608.41;5038152;28;45458;-72
2023/07/29 08:55:56;;;;;;;;;1.00;1.00;;;;;24.78;53.75;100585.69;5038187;28;45306;-72
2023/07/29 08:58:23;;;;;;;;;0.25;0.25;;;;;24.86;53.90;100590.78;5038137;28;45299;-72
2023/07/29 09:00:49;;;;;;;;;0.75;0.75;;;;;24.87;53.68;100562.50;5037874;28;45766;-72
2023/07/29 09:03:15;;;;;;;;;1.00;1.00;;;;;25.12;53.44;100603.00;5037821;28;45336;-72
2023/07/29 09:05:40;;;;;;;;;0.00;0.00;;;;;25.24;52.86;100598.34;5038039;28;45390;-73
2023/07/29 09:08:07;;;;;;;;;1.75;0.00;;;;;25.27;52.38;100602.47;5036226;28;45665;-73
2023/07/29 09:10:37;;;;;;;;;1.75;1.75;;;;;25.20;52.88;100580.81;5019772;28;47813;-74
2023/07/29 09:13:03;;;;;;;;;1.50;0.25;;;;;25.20;52.61;100559.06;5037150;28;45251;-72
2023/07/29 09:15:34;;;;;;;;;0.00;0.00;;;;;25.44;52.25;100584.25;5038021;28;45504;-73
2023/07/29 09:18:09;;;;;;;;;0.75;0.75;;;;;25.53;52.22;100588.22;5038012;28;45166;-73
2023/07/29 09:20:34;;;;;;;;;0.00;0.00;;;;;25.60;51.26;100582.59;5037903;28;46531;-72
2023/07/29 09:23:00;;;;;;;;;1.25;1.25;;;;;25.57;52.09;100562.16;5037754;28;45208;-72
2023/07/29 09:25:27;;;;;;;;;1.00;1.00;;;;;25.69;51.19;100587.44;5037937;28;45244;-73
2023/07/29 09:27:53;;;;;;;;;1.00;1.00;;;;;25.71;50.79;100581.75;5038080;28;45408;-71
2023/07/29 09:30:18;;;;;;;;;1.50;0.75;;;;;25.64;51.38;100565.56;5037769;28;45862;-73
2023/07/29 09:32:44;;;;;;;;;0.75;0.50;;;;;25.65;51.21;100575.38;5037716;28;45474;-74
2023/07/29 09:35:11;;;;;;;;;0.00;0.00;;;;;25.40;51.22;100512.31;5037713;28;45303;-74
2023/07/29 09:37:38;;;;;;;;;0.25;0.00;;;;;25.69;50.76;100573.81;5038067;28;45402;-73
2023/07/29 09:40:04;;;;;;;;;0.50;0.50;;;;;25.32;51.14;100510.03;5035835;28;48937;-73
2023/07/29 09:42:29;;;;;;;;;1.00;1.00;;;;;24.96;50.97;100454.16;5037221;28;45381;-72
2023/07/29 09:44:54;;;;;;;;;0.50;0.50;;;;;25.62;50.94;100556.78;5036094;28;51365;-72
2023/07/29 09:47:25;;;;;;;;;0.00;0.00;;;;;25.47;50.64;100535.59;5036480;28;45776;-73
2023/07/29 09:49:52;;;;;;;;;1.00;1.00;;;;;25.62;50.55;100562.22;5037567;28;45300;-72
2023/07/29 09:52:18;;;;;;;;;2.00;2.00;;;;;25.45;51.05;100547.81;5037241;28;45518;-71
2023/07/29 09:54:44;;;;;;;;;0.25;0.25;;;;;25.56;50.83;100576.84;5035985;28;45503;-73
2023/07/29 09:57:13;;;;;;;;;1.00;1.00;;;;;25.65;50.87;100575.38;5035914;28;45539;-73
2023/07/29 09:59:38;;;;;;;;;1.00;1.00;;;;;25.75;51.08;100575.53;5037065;28;46182;-74
2023/07/29 10:02:04;;;;;;;;;0.00;0.00;;;;;25.74;50.87;100565.72;5037326;28;45629;-73
2023/07/29 10:04:30;;;;;;;;;0.75;0.75;;;;;25.86;51.01;100581.16;5019236;28;45391;-72
2023/07/29 10:06:57;;;;;;;;;1.00;1.00;;;;;25.74;50.74;100573.91;5036007;28;45548;-72
2023/07/29 10:09:23;;;;;;;;;1.75;1.75;;;;;25.75;50.80;100577.44;5018971;28;48073;-74
2023/07/29 10:11:50;;;;;;;;;0.00;0.00;;;;;25.64;51.07;100579.16;5036772;28;45246;-72
2023/07/29 10:14:16;;;;;;;;;1.00;1.00;;;;;25.49;51.10;100554.41;5036837;28;45632;-74
2023/07/29 10:16:45;;;;;;;;;2.25;2.25;;;;;25.41;51.30;100557.50;5037089;28;45658;-73
2023/07/29 10:19:10;;;;;;;;;1.75;1.00;;;;;25.33;51.38;100547.03;5036259;28;46981;-73
2023/07/29 10:21:38;;;;;;;;;2.00;1.00;;;;;25.44;51.40;100581.53;5036222;28;45535;-72
2023/07/29 10:24:09;;;;;;;;;1.00;1.00;;;;;25.42;51.63;100572.78;5037012;28;45340;-72
2023/07/29 10:26:39;;;;;;;;;3.25;2.00;;;;;25.40;51.91;100564.03;5037023;28;45418;-73
2023/07/29 10:29:10;;;;;;;;;1.75;1.75;;;;;25.31;51.51;100546.47;5034758;28;47859;-74
2023/07/29 10:31:38;;;;;;;;;0.50;0.50;;;;;25.54;52.01;100584.44;5036647;28;45703;-73
2023/07/29 10:34:04;;;;;;;;;1.50;1.50;;;;;25.57;51.59;100575.75;5036853;28;45522;-73
2023/07/29 10:36:30;;;;;;;;;1.25;1.25;;;;;25.58;51.82;100584.75;5036552;28;45230;-72
2023/07/29 10:38:55;;;;;;;;;3.25;3.25;;;;;25.48;51.88;100564.47;5036446;28;46306;-71
2023/07/29 10:41:22;;;;;;;;;2.25;1.25;;;;;25.55;52.14;100569.75;5036108;28;45515;-73
2023/07/29 10:43:48;;;;;;;;;1.00;1.00;;;;;25.61;52.20;100574.19;5018329;28;45262;-73
2023/07/29 10:46:19;;;;;;;;;1.25;1.25;;;;;25.63;52.52;100574.78;5036145;28;54306;-72
2023/07/29 10:48:56;;;;;;;;;4.00;3.00;;;;;25.47;52.25;100556.56;5036027;28;46300;-72
2023/07/29 10:51:29;;;;;;;;;4.00;4.00;;;;;25.66;52.47;100581.63;5034740;28;45414;-72
2023/07/29 10:54:00;;;;;;;;;2.50;2.50;;;;;25.28;52.19;100514.31;5036396;28;45337;-74
2023/07/29 10:56:35;;;;;;;;;2.00;2.00;;;;;25.57;52.89;100566.78;5036806;28;45302;-71
2023/07/29 10:59:16;;;;;;;;;1.00;1.00;;;;;25.58;52.23;100573.88;5036063;28;46430;-73
2023/07/29 11:01:49;;;;;;;;;1.75;1.75;;;;;25.57;52.41;100570.31;5036174;28;45578;-71
2023/07/29 11:04:24;;;;;;;;;3.00;3.00;;;;;25.57;52.46;100567.59;5036029;28;45214;-73
2023/07/29 11:07:04;;;;;;;;;2.00;2.00;;;;;25.56;52.56;100579.56;5035032;28;45512;-72
2023/07/29 11:09:52;;;;;;;;;1.25;1.25;;;;;25.44;52.21;100555.16;5035918;28;46323;-72
2023/07/29 11:12:47;;;;;;;;;2.25;2.25;;;;;25.57;52.86;100566.78;5035851;28;45358;-73
2023/07/29 11:15:28;;;;;;;;;1.25;1.25;;;;;25.59;53.05;100564.63;5036326;28;45270;-72
2023/07/29 11:17:55;;;;;;;;;1.00;1.00;;;;;25.61;52.94;100573.38;5036248;28;45214;-71
2023/07/29 11:20:26;;;;;;;;;2.25;2.25;;;;;25.68;52.87;100566.72;5035854;28;45415;-73
2023/07/29 11:22:54;;;;;;;;;1.50;1.50;;;;;25.58;53.22;100552.09;5035950;28;45461;-74